Terminal Aerodrome Forecast
Issued by NWS Wichita, KS

Home | Current Version | Previous Version | Graphics & Text | Print | Product List | Glossary On
Versions: 1 2 3 4 5 6 7 8 9 10 11 12 13 14 15 16 17 18 19 20 21
619
FTUS43 KICT 251720
TAFICT
TAF
KICT 251720Z 2518/2618 VRB05KT P6SM FEW030 BKN150
     FM252000 VRB06KT P6SM VCTS SCT035CB BKN090
     FM260000 08006KT P6SM SCT200
     FM260900 05003KT 5SM BR FEW005
     FM261500 11006KT P6SM FEW250=

USA.gov is the U.S. government's official web portal to all federal, state and local government web resources and services.